createdAt,value
2017-09-18T00:01:19.147Z,11.20
2017-09-18T00:03:46.662Z,11.20
2017-09-18T00:06:14.967Z,11.20
2017-09-18T00:08:42.490Z,11.10
2017-09-18T00:11:10.291Z,11.20
2017-09-18T00:13:37.891Z,11.20
2017-09-18T00:16:05.396Z,11.20
2017-09-18T00:18:32.915Z,11.20
2017-09-18T00:21:00.418Z,11.20
2017-09-18T00:23:27.943Z,11.10
2017-09-18T00:25:55.487Z,11.10
2017-09-18T00:28:23.011Z,11.10
2017-09-18T00:30:51.216Z,11.10
2017-09-18T00:33:19.644Z,11.10
2017-09-18T00:35:47.355Z,11.00
2017-09-18T00:38:14.979Z,11.10
2017-09-18T00:40:42.483Z,11.00
2017-09-18T00:43:10.035Z,11.10
2017-09-18T00:45:37.596Z,11.10
2017-09-18T00:48:05.119Z,11.00
2017-09-18T00:50:32.828Z,11.00
2017-09-18T00:53:00.347Z,11.00
2017-09-18T00:55:28.615Z,10.90
2017-09-18T00:57:56.139Z,10.90
2017-09-18T01:00:23.643Z,10.90
2017-09-18T01:02:51.919Z,11.00
2017-09-18T01:05:20.203Z,11.00
2017-09-18T01:07:48.471Z,11.00
2017-09-18T01:10:16.762Z,11.00
2017-09-18T01:12:44.351Z,11.00
2017-09-18T01:15:11.870Z,11.00
2017-09-18T01:17:40.999Z,10.90
2017-09-18T01:20:08.512Z,10.90
2017-09-18T01:22:36.787Z,10.90
2017-09-18T01:25:04.303Z,10.90
2017-09-18T01:27:31.907Z,10.90
2017-09-18T01:30:00.196Z,10.90
2017-09-18T01:32:28.463Z,10.90
2017-09-18T01:34:56.862Z,10.80
2017-09-18T01:37:24.366Z,10.80
2017-09-18T01:39:51.888Z,10.80
2017-09-18T01:42:19.419Z,10.90
2017-09-18T01:44:48.072Z,10.90
2017-09-18T01:47:15.693Z,10.80
2017-09-18T01:49:45.895Z,10.90
2017-09-18T01:52:13.396Z,10.90
2017-09-18T01:54:40.910Z,10.90
2017-09-18T01:57:09.177Z,10.70
2017-09-18T01:59:38.599Z,10.70
2017-09-18T02:02:06.815Z,10.70
2017-09-18T02:04:34.434Z,10.70
2017-09-18T02:07:02.045Z,10.70
2017-09-18T02:09:29.575Z,10.70
2017-09-18T02:11:57.906Z,10.70
2017-09-18T02:14:26.187Z,10.70
2017-09-18T02:16:54.475Z,10.60
2017-09-18T02:19:21.983Z,10.60
2017-09-18T02:21:49.504Z,10.70
2017-09-18T02:24:17.010Z,10.80
2017-09-18T02:26:44.527Z,10.70
2017-09-18T02:29:12.023Z,10.70
2017-09-18T02:31:39.548Z,10.80
2017-09-18T02:34:07.052Z,10.80
2017-09-18T02:36:35.338Z,10.60
2017-09-18T02:39:03.616Z,10.70
2017-09-18T02:41:31.907Z,10.80
2017-09-18T02:43:59.412Z,10.80
2017-09-18T02:46:26.931Z,10.80
2017-09-18T02:48:55.142Z,10.90
2017-09-18T02:51:22.662Z,10.90
2017-09-18T02:53:50.171Z,10.80
2017-09-18T02:56:17.791Z,10.70
2017-09-18T02:58:45.291Z,10.80
2017-09-18T03:01:13.602Z,10.80
2017-09-18T03:03:41.968Z,10.90
2017-09-18T03:06:10.259Z,10.90
2017-09-18T03:08:38.524Z,10.90
2017-09-18T03:11:06.807Z,10.80
2017-09-18T03:13:35.083Z,10.90
2017-09-18T03:16:03.371Z,10.90
2017-09-18T03:18:30.875Z,10.90
2017-09-18T03:20:58.379Z,10.90
2017-09-18T03:23:25.899Z,10.90
2017-09-18T03:25:53.404Z,10.90
2017-09-18T03:28:20.955Z,10.90
2017-09-18T03:30:48.567Z,10.90
2017-09-18T03:33:16.091Z,10.90
2017-09-18T03:35:43.640Z,10.90
2017-09-18T03:38:11.195Z,10.80
2017-09-18T03:40:38.698Z,10.70
2017-09-18T03:43:06.220Z,10.70
2017-09-18T03:45:33.720Z,10.80
2017-09-18T03:48:01.327Z,10.90
2017-09-18T03:50:28.887Z,10.90
2017-09-18T03:52:56.407Z,11.00
2017-09-18T03:55:23.996Z,10.90
2017-09-18T03:57:53.023Z,10.90
2017-09-18T04:00:20.518Z,10.90
2017-09-18T04:02:48.067Z,10.90
2017-09-18T04:05:17.750Z,10.80
2017-09-18T04:07:45.278Z,10.80
2017-09-18T04:10:12.884Z,10.80
2017-09-18T04:12:40.512Z,10.80
2017-09-18T04:15:08.835Z,10.80
2017-09-18T04:17:36.354Z,10.80
2017-09-18T04:20:03.899Z,10.80
2017-09-18T04:22:31.424Z,10.80
2017-09-18T04:24:58.927Z,10.80
2017-09-18T04:27:26.442Z,10.60
2017-09-18T04:29:54.707Z,10.70
2017-09-18T04:32:23.750Z,10.70
2017-09-18T04:34:51.250Z,10.70
2017-09-18T04:37:18.759Z,10.70
2017-09-18T04:39:46.279Z,10.70
2017-09-18T04:42:13.866Z,10.70
2017-09-18T04:44:41.428Z,10.70
2017-09-18T04:47:08.931Z,10.80
2017-09-18T04:49:36.463Z,10.80
2017-09-18T04:52:04.008Z,10.80
2017-09-18T04:54:31.531Z,10.80
2017-09-18T04:56:59.698Z,10.70
2017-09-18T04:59:28.718Z,10.70
2017-09-18T05:01:57.080Z,10.70
2017-09-18T05:04:25.370Z,10.80
2017-09-18T05:06:53.651Z,10.80
2017-09-18T05:09:21.939Z,10.80
2017-09-18T05:11:50.151Z,10.80
2017-09-18T05:14:17.666Z,10.70
2017-09-18T05:16:45.255Z,10.80
2017-09-18T05:19:12.788Z,10.70
2017-09-18T05:21:40.295Z,10.70
2017-09-18T05:24:07.814Z,10.70
2017-09-18T05:26:36.048Z,10.70
2017-09-18T05:29:04.320Z,10.70
2017-09-18T05:31:31.844Z,10.60
2017-09-18T05:33:59.347Z,10.60
2017-09-18T05:36:27.644Z,10.60
2017-09-18T05:38:55.147Z,10.60
2017-09-18T05:41:22.669Z,10.70
2017-09-18T05:43:50.215Z,10.70
2017-09-18T05:46:17.735Z,10.70
2017-09-18T05:48:45.340Z,10.80
2017-09-18T05:51:12.862Z,10.80
2017-09-18T05:53:41.103Z,10.80
2017-09-18T05:56:08.624Z,10.70
2017-09-18T05:58:36.236Z,10.70
2017-09-18T06:01:03.759Z,10.70
2017-09-18T06:03:31.259Z,10.70
2017-09-18T06:05:58.792Z,10.70
2017-09-18T06:08:26.688Z,10.70
2017-09-18T06:10:54.286Z,10.70
2017-09-18T06:13:21.847Z,10.80
2017-09-18T06:15:49.351Z,10.80
2017-09-18T06:18:17.270Z,10.80
2017-09-18T06:20:44.775Z,10.80
2017-09-18T06:23:12.295Z,10.90
2017-09-18T06:25:39.800Z,10.80
2017-09-18T06:28:08.826Z,10.70
2017-09-18T06:30:37.095Z,10.80
2017-09-18T06:33:05.550Z,10.80
2017-09-18T06:35:33.047Z,10.80
2017-09-18T06:38:00.573Z,10.80
2017-09-18T06:40:28.076Z,10.90
2017-09-18T06:42:55.595Z,10.90
2017-09-18T06:45:23.099Z,11.00
2017-09-18T06:47:50.638Z,11.00
2017-09-18T06:50:18.139Z,11.00
2017-09-18T06:52:45.656Z,11.00
2017-09-18T06:55:13.759Z,11.10
2017-09-18T06:57:41.278Z,11.10
2017-09-18T07:00:09.543Z,11.10
2017-09-18T07:02:37.855Z,11.20
2017-09-18T07:05:05.802Z,11.20
2017-09-18T07:07:33.471Z,11.20
2017-09-18T07:10:01.614Z,11.20
2017-09-18T07:12:29.115Z,11.20
2017-09-18T07:14:56.631Z,11.30
2017-09-18T07:17:24.900Z,11.30
2017-09-18T07:19:52.423Z,11.30
2017-09-18T07:22:19.931Z,11.30
2017-09-18T07:24:48.227Z,11.40
2017-09-18T07:27:15.727Z,11.40
2017-09-18T07:29:44.115Z,11.40
2017-09-18T07:32:13.128Z,11.50
2017-09-18T07:34:41.416Z,11.50
2017-09-18T07:37:09.687Z,11.60
2017-09-18T07:39:37.971Z,11.60
2017-09-18T07:42:06.243Z,11.60
2017-09-18T07:44:34.547Z,11.60
2017-09-18T07:47:02.055Z,11.60
2017-09-18T07:49:29.650Z,11.70
2017-09-18T07:51:57.211Z,11.60
2017-09-18T07:54:24.767Z,11.70
2017-09-18T07:56:52.287Z,11.70
2017-09-18T07:59:19.875Z,11.60
2017-09-18T08:01:48.150Z,11.60
2017-09-18T08:04:16.411Z,11.70
2017-09-18T08:06:44.699Z,11.70
2017-09-18T08:09:13.034Z,11.70
2017-09-18T08:11:40.810Z,11.70
2017-09-18T08:14:08.411Z,11.60
2017-09-18T08:16:36.041Z,11.60
2017-09-18T08:19:03.546Z,11.70
2017-09-18T08:21:31.058Z,11.70
2017-09-18T08:24:00.066Z,11.70
2017-09-18T08:26:28.356Z,11.80
2017-09-18T08:28:55.860Z,11.70
2017-09-18T08:31:23.906Z,11.80
2017-09-18T08:33:51.442Z,11.80
2017-09-18T08:36:19.251Z,11.80
2017-09-18T08:38:46.746Z,11.80
2017-09-18T08:41:15.011Z,11.90
2017-09-18T08:43:43.299Z,11.90
2017-09-18T08:46:11.599Z,11.90
2017-09-18T08:48:39.114Z,11.90
2017-09-18T08:51:06.611Z,12.00
2017-09-18T08:53:34.170Z,11.90
2017-09-18T08:56:02.378Z,11.90
2017-09-18T08:58:29.899Z,11.90
2017-09-18T09:00:57.458Z,12.00
2017-09-18T09:03:24.995Z,12.00
2017-09-18T09:05:53.259Z,12.00
2017-09-18T09:08:20.858Z,12.00
2017-09-18T09:10:48.621Z,12.00
2017-09-18T09:13:16.139Z,12.00
2017-09-18T09:15:43.635Z,12.00
2017-09-18T09:18:11.190Z,12.00
2017-09-18T09:20:38.682Z,12.00
2017-09-18T09:23:06.194Z,12.10
2017-09-18T09:25:34.463Z,12.10
2017-09-18T09:28:02.763Z,12.10
2017-09-18T09:30:30.271Z,12.10
2017-09-18T09:32:57.794Z,12.10
2017-09-18T09:35:25.331Z,12.20
2017-09-18T09:37:52.829Z,12.30
2017-09-18T09:40:20.343Z,12.40
2017-09-18T09:42:48.634Z,12.60
2017-09-18T09:45:16.147Z,12.50
2017-09-18T09:47:44.063Z,12.60
2017-09-18T09:50:11.589Z,12.80
2017-09-18T09:52:39.855Z,12.80
2017-09-18T09:55:07.547Z,12.80
2017-09-18T09:57:35.055Z,13.00
2017-09-18T10:00:02.576Z,13.00
2017-09-18T10:02:30.080Z,13.10
2017-09-18T10:04:59.103Z,13.30
2017-09-18T10:07:27.371Z,13.30
2017-09-18T10:09:55.651Z,13.30
2017-09-18T10:12:23.943Z,13.50
2017-09-18T10:14:51.499Z,13.40
2017-09-18T10:17:18.994Z,13.50
2017-09-18T10:19:46.618Z,13.50
2017-09-18T10:22:14.175Z,13.40
2017-09-18T10:24:41.774Z,13.50
2017-09-18T10:27:09.286Z,13.50
2017-09-18T10:29:37.555Z,13.50
2017-09-18T10:32:05.840Z,13.60
2017-09-18T10:34:34.161Z,13.60
2017-09-18T10:37:01.655Z,13.60
2017-09-18T10:39:29.926Z,13.70
2017-09-18T10:41:57.534Z,13.70
2017-09-18T10:44:25.040Z,13.80
2017-09-18T10:46:52.647Z,14.00
2017-09-18T10:49:20.150Z,14.10
2017-09-18T10:51:47.754Z,14.30
2017-09-18T10:54:15.315Z,14.60
2017-09-18T10:56:42.826Z,14.60
2017-09-18T10:59:10.427Z,14.60
2017-09-18T11:01:37.943Z,14.50
2017-09-18T11:04:05.447Z,14.50
2017-09-18T11:06:33.053Z,14.50
2017-09-18T11:09:00.667Z,14.40
2017-09-18T11:11:28.183Z,14.40
2017-09-18T11:13:55.787Z,14.50
2017-09-18T11:16:23.283Z,14.60
2017-09-18T11:18:50.803Z,14.70
2017-09-18T11:21:18.387Z,14.90
2017-09-18T11:23:45.899Z,15.00
2017-09-18T11:26:14.262Z,14.90
2017-09-18T11:28:41.781Z,14.90
2017-09-18T11:31:09.995Z,14.90
2017-09-18T11:33:37.520Z,14.90
2017-09-18T11:36:05.019Z,14.90
2017-09-18T11:38:33.303Z,15.00
2017-09-18T11:41:01.591Z,15.00
2017-09-18T11:43:29.998Z,15.00
2017-09-18T11:45:57.498Z,15.00
2017-09-18T11:48:25.640Z,15.00
2017-09-18T11:50:53.167Z,15.00
2017-09-18T11:53:20.691Z,14.90
2017-09-18T11:55:48.758Z,14.90
2017-09-18T11:58:16.274Z,15.00
2017-09-18T12:00:43.803Z,15.00
2017-09-18T12:03:11.323Z,15.10
2017-09-18T12:05:39.539Z,15.20
2017-09-18T12:08:07.099Z,15.20
2017-09-18T12:10:34.598Z,15.20
2017-09-18T12:13:02.115Z,15.10
2017-09-18T12:15:29.619Z,15.10
2017-09-18T12:17:58.579Z,14.90
2017-09-18T12:20:26.122Z,14.90
2017-09-18T12:22:54.503Z,14.80
2017-09-18T12:25:22.714Z,14.80
2017-09-18T12:27:50.230Z,14.80
2017-09-18T12:30:17.727Z,14.80
2017-09-18T12:32:45.247Z,14.90
2017-09-18T12:35:12.750Z,14.80
2017-09-18T12:37:40.992Z,14.90
2017-09-18T12:40:08.495Z,14.90
2017-09-18T12:42:36.012Z,14.80
2017-09-18T12:45:03.555Z,14.60
2017-09-18T12:47:31.884Z,14.30
2017-09-18T12:49:59.386Z,14.30
2017-09-18T12:52:26.945Z,14.30
2017-09-18T12:54:54.462Z,14.30
2017-09-18T12:57:21.958Z,14.20
2017-09-18T12:59:49.470Z,14.10
2017-09-18T13:02:16.971Z,14.10
2017-09-18T13:04:45.258Z,14.20
2017-09-18T13:07:12.756Z,14.20
2017-09-18T13:09:40.279Z,14.40
2017-09-18T13:12:07.787Z,14.40
2017-09-18T13:14:35.307Z,14.50
2017-09-18T13:17:02.807Z,14.50
2017-09-18T13:19:30.319Z,14.40
2017-09-18T13:21:57.818Z,14.20
2017-09-18T13:24:25.418Z,14.20
2017-09-18T13:26:52.915Z,14.20
2017-09-18T13:29:20.539Z,14.10
2017-09-18T13:31:48.095Z,14.10
2017-09-18T13:34:15.655Z,14.10
2017-09-18T13:36:43.163Z,14.10
2017-09-18T13:39:10.675Z,14.00
2017-09-18T13:41:38.179Z,14.10
2017-09-18T13:44:05.699Z,14.10
2017-09-18T13:46:33.194Z,14.00
2017-09-18T13:49:01.571Z,14.10
2017-09-18T13:51:29.162Z,14.00
2017-09-18T13:53:57.457Z,14.20
2017-09-18T13:56:24.988Z,14.20
2017-09-18T13:58:52.479Z,14.40
2017-09-18T14:01:20.000Z,14.40
2017-09-18T14:03:47.498Z,14.50
2017-09-18T14:06:15.010Z,14.50
2017-09-18T14:08:42.508Z,14.50
2017-09-18T14:11:10.027Z,14.60
2017-09-18T14:13:37.727Z,14.60
2017-09-18T14:16:06.069Z,14.70
2017-09-18T14:18:33.563Z,14.80
2017-09-18T14:21:01.082Z,14.90
2017-09-18T14:23:28.582Z,14.90
2017-09-18T14:25:56.093Z,14.90
2017-09-18T14:28:24.078Z,14.80
2017-09-18T14:30:51.658Z,14.80
2017-09-18T14:33:19.154Z,14.90
2017-09-18T14:35:46.671Z,14.90
2017-09-18T14:38:14.934Z,14.90
2017-09-18T14:40:43.219Z,15.00
2017-09-18T14:43:11.480Z,15.10
2017-09-18T14:45:39.767Z,15.20
2017-09-18T14:48:08.035Z,15.60
2017-09-18T14:50:36.338Z,15.50
2017-09-18T14:53:03.839Z,15.50
2017-09-18T14:55:31.335Z,15.70
2017-09-18T14:57:59.612Z,15.70
2017-09-18T15:00:27.875Z,15.80
2017-09-18T15:02:56.154Z,15.70
2017-09-18T15:05:24.419Z,15.60
2017-09-18T15:07:51.935Z,15.60
2017-09-18T15:10:19.463Z,15.50
2017-09-18T15:12:46.990Z,15.40
2017-09-18T15:15:15.307Z,15.40
2017-09-18T15:17:42.822Z,15.40
2017-09-18T15:20:10.321Z,15.40
2017-09-18T15:22:37.842Z,15.30
2017-09-18T15:25:05.367Z,15.30
2017-09-18T15:27:32.970Z,15.30
2017-09-18T15:30:01.235Z,18.80
2017-09-18T15:32:28.754Z,18.80
2017-09-18T15:34:56.979Z,20.40
2017-09-18T15:37:25.259Z,23.50
2017-09-18T15:39:53.523Z,24.30
2017-09-18T15:42:21.068Z,24.30
2017-09-18T15:44:48.670Z,25.70
2017-09-18T15:47:16.183Z,25.30
2017-09-18T15:49:43.711Z,24.20
2017-09-18T15:52:11.241Z,23.00
2017-09-18T15:54:38.807Z,21.90
2017-09-18T15:57:06.323Z,20.80
2017-09-18T15:59:33.831Z,19.70
2017-09-18T16:02:01.355Z,18.90
2017-09-18T16:04:29.632Z,17.90
2017-09-18T16:06:57.910Z,17.40
2017-09-18T16:09:26.889Z,16.90
2017-09-18T16:11:54.483Z,16.90
2017-09-18T16:14:22.046Z,16.60
2017-09-18T16:16:49.567Z,16.50
2017-09-18T16:19:17.067Z,16.30
2017-09-18T16:21:44.591Z,16.10
2017-09-18T16:24:12.859Z,15.80
2017-09-18T16:26:40.383Z,15.80
2017-09-18T16:29:07.887Z,15.70
2017-09-18T16:31:36.175Z,15.40
2017-09-18T16:34:04.438Z,15.30
2017-09-18T16:36:32.722Z,15.20
2017-09-18T16:39:00.991Z,15.20
2017-09-18T16:41:29.283Z,15.10
2017-09-18T16:43:57.060Z,15.00
2017-09-18T16:46:24.600Z,15.00
2017-09-18T16:48:52.862Z,14.80
2017-09-18T16:51:21.176Z,14.80
2017-09-18T16:53:48.691Z,14.70
2017-09-18T16:56:16.186Z,14.70
2017-09-18T16:58:43.735Z,14.60
2017-09-18T17:01:11.295Z,14.50
2017-09-18T17:03:38.850Z,14.30
2017-09-18T17:06:06.346Z,14.30
2017-09-18T17:08:33.859Z,14.20
2017-09-18T17:11:01.427Z,14.10
2017-09-18T17:13:28.951Z,13.90
2017-09-18T17:15:57.982Z,13.70
2017-09-18T17:18:25.498Z,13.70
2017-09-18T17:20:54.552Z,13.50
2017-09-18T17:23:22.066Z,13.50
2017-09-18T17:25:50.335Z,13.40
2017-09-18T17:28:17.848Z,13.40
2017-09-18T17:30:45.350Z,13.40
2017-09-18T17:33:12.944Z,13.40
2017-09-18T17:35:41.024Z,13.30
2017-09-18T17:38:08.543Z,13.20
2017-09-18T17:40:36.846Z,13.00
2017-09-18T17:43:04.393Z,13.00
2017-09-18T17:45:32.663Z,13.00
2017-09-18T17:48:00.959Z,13.00
2017-09-18T17:50:29.195Z,12.90
2017-09-18T17:52:56.871Z,12.90
2017-09-18T17:55:25.154Z,12.80
2017-09-18T17:57:53.418Z,12.80
2017-09-18T18:00:21.707Z,12.80
2017-09-18T18:02:50.833Z,12.70
2017-09-18T18:05:18.354Z,12.70
2017-09-18T18:07:47.463Z,12.70
2017-09-18T18:10:15.743Z,12.60
2017-09-18T18:12:43.302Z,12.60
2017-09-18T18:15:10.818Z,12.70
2017-09-18T18:17:38.318Z,12.70
2017-09-18T18:20:05.830Z,12.60
2017-09-18T18:22:33.332Z,12.60
2017-09-18T18:25:00.862Z,12.50
2017-09-18T18:27:28.364Z,12.50
2017-09-18T18:29:56.528Z,12.50
2017-09-18T18:32:24.030Z,12.40
2017-09-18T18:34:51.551Z,12.40
2017-09-18T18:37:19.811Z,12.40
2017-09-18T18:39:47.328Z,12.40
2017-09-18T18:42:14.838Z,12.40
2017-09-18T18:44:42.395Z,12.40
2017-09-18T18:47:10.731Z,12.30
2017-09-18T18:49:38.246Z,12.30
2017-09-18T18:52:05.785Z,12.30
2017-09-18T18:54:33.296Z,12.30
2017-09-18T18:57:00.819Z,12.30
2017-09-18T18:59:28.313Z,12.40
2017-09-18T19:01:55.933Z,12.40
2017-09-18T19:04:23.435Z,12.40
2017-09-18T19:06:50.963Z,12.40
2017-09-18T19:09:18.467Z,12.40
2017-09-18T19:11:46.757Z,12.30
2017-09-18T19:14:15.018Z,12.30
2017-09-18T19:16:43.303Z,12.30
2017-09-18T19:19:11.576Z,12.30
2017-09-18T19:21:39.892Z,12.30
2017-09-18T19:24:07.438Z,12.20
2017-09-18T19:26:34.997Z,12.30
2017-09-18T19:29:02.495Z,12.30
2017-09-18T19:31:30.104Z,12.30
2017-09-18T19:33:57.607Z,12.30
2017-09-18T19:36:25.819Z,12.30
2017-09-18T19:38:54.130Z,12.20
2017-09-18T19:41:21.664Z,12.20
2017-09-18T19:43:49.927Z,12.30
2017-09-18T19:46:18.223Z,12.30
2017-09-18T19:48:45.723Z,12.30
2017-09-18T19:51:13.968Z,12.30
2017-09-18T19:53:41.578Z,12.30
2017-09-18T19:56:09.279Z,12.20
2017-09-18T19:58:36.821Z,12.20
2017-09-18T20:01:05.141Z,12.30
2017-09-18T20:03:33.572Z,12.30
2017-09-18T20:06:02.683Z,12.20
2017-09-18T20:08:30.390Z,12.20
2017-09-18T20:10:57.918Z,12.20
2017-09-18T20:13:25.418Z,12.20
2017-09-18T20:15:52.922Z,12.30
2017-09-18T20:18:20.434Z,12.30
2017-09-18T20:20:47.934Z,12.20
2017-09-18T20:23:16.219Z,12.10
2017-09-18T20:25:43.714Z,12.10
2017-09-18T20:28:11.227Z,12.10
2017-09-18T20:30:39.491Z,12.10
2017-09-18T20:33:07.782Z,12.10
2017-09-18T20:35:35.344Z,12.10
2017-09-18T20:38:02.858Z,12.10
2017-09-18T20:40:30.790Z,12.10
2017-09-18T20:42:58.383Z,12.10
2017-09-18T20:45:25.882Z,12.10
2017-09-18T20:47:54.167Z,12.00
2017-09-18T20:50:21.674Z,11.90
2017-09-18T20:52:49.188Z,11.90
2017-09-18T20:55:16.734Z,11.80
2017-09-18T20:57:44.266Z,11.80
2017-09-18T21:00:11.786Z,11.70
2017-09-18T21:02:39.292Z,11.70
2017-09-18T21:05:07.570Z,11.60
2017-09-18T21:07:35.836Z,11.70
2017-09-18T21:10:04.122Z,11.70
2017-09-18T21:12:32.395Z,11.70
2017-09-18T21:15:00.678Z,11.70
2017-09-18T21:17:28.939Z,11.70
2017-09-18T21:19:57.231Z,11.60
2017-09-18T21:22:25.498Z,11.60
2017-09-18T21:24:53.846Z,11.60
2017-09-18T21:27:21.350Z,11.60
2017-09-18T21:29:48.916Z,11.60
2017-09-18T21:32:16.759Z,11.50
2017-09-18T21:34:45.068Z,11.40
2017-09-18T21:37:12.567Z,11.40
2017-09-18T21:39:40.867Z,11.30
2017-09-18T21:42:09.134Z,11.30
2017-09-18T21:44:36.630Z,11.20
2017-09-18T21:47:04.146Z,11.20
2017-09-18T21:49:31.734Z,11.20
2017-09-18T21:51:59.963Z,11.10
2017-09-18T21:54:27.468Z,11.10
2017-09-18T21:56:55.032Z,11.00
2017-09-18T21:59:22.530Z,11.00
2017-09-18T22:01:50.051Z,10.90
2017-09-18T22:04:17.562Z,11.00
2017-09-18T22:06:45.093Z,10.90
2017-09-18T22:09:12.595Z,10.90
2017-09-18T22:11:40.883Z,10.80
2017-09-18T22:14:09.187Z,10.80
2017-09-18T22:16:36.713Z,10.80
2017-09-18T22:19:04.978Z,10.70
2017-09-18T22:21:32.558Z,10.70
2017-09-18T22:24:00.063Z,10.70
2017-09-18T22:26:27.575Z,10.60
2017-09-18T22:28:55.085Z,10.70
2017-09-18T22:31:22.599Z,10.70
2017-09-18T22:33:50.099Z,10.70
2017-09-18T22:36:17.618Z,10.80
2017-09-18T22:38:45.115Z,10.90
2017-09-18T22:41:12.651Z,10.90
2017-09-18T22:43:40.183Z,10.90
2017-09-18T22:46:07.686Z,10.90
2017-09-18T22:48:35.303Z,10.90
2017-09-18T22:51:02.803Z,10.90
2017-09-18T22:53:31.168Z,10.90
2017-09-18T22:55:58.683Z,11.00
2017-09-18T22:58:27.827Z,11.00
2017-09-18T23:00:55.395Z,11.00
2017-09-18T23:03:22.914Z,10.90
2017-09-18T23:05:51.118Z,10.80
2017-09-18T23:08:18.630Z,10.70
2017-09-18T23:10:46.890Z,10.70
2017-09-18T23:13:14.471Z,10.70
2017-09-18T23:15:42.039Z,10.70
2017-09-18T23:18:09.551Z,10.60
2017-09-18T23:20:37.159Z,10.60
2017-09-18T23:23:04.679Z,10.70
2017-09-18T23:25:32.266Z,10.70
2017-09-18T23:28:01.003Z,10.70
2017-09-18T23:30:28.614Z,10.70
2017-09-18T23:32:56.110Z,10.80
2017-09-18T23:35:23.635Z,10.70
2017-09-18T23:37:51.855Z,10.80
2017-09-18T23:40:19.368Z,10.90
2017-09-18T23:42:46.922Z,10.90
2017-09-18T23:45:14.439Z,10.90
2017-09-18T23:47:41.941Z,10.80
2017-09-18T23:50:09.495Z,10.80
2017-09-18T23:52:39.922Z,10.80
2017-09-18T23:55:07.439Z,10.90
2017-09-18T23:57:34.970Z,10.70
